Time;durP1;ratioP1;P1;durP2;ratioP2;P2;SDS_P1;SDS_P2;PMS_P1;PMS_P2;Temp;Humidity;BMP_temperature;BMP_pressure;BME280_temperature;BME280_humidity;BME280_pressure;Samples;Min_cycle;Max_cycle;Signal;HPM_P1;HPM_P2
2022/12/23 00:00:40;;;;;;;46.60;24.37;;;;;;;;;;5073887;28;20269;-61
2022/12/23 00:03:22;;;;;;;51.20;24.67;;;;;;;;;;5073930;28;20203;-60
2022/12/23 00:05:50;;;;;;;48.77;24.33;;;;;;;;;;5073908;28;20537;-61
2022/12/23 00:08:18;;;;;;;42.80;23.93;;;;;;;;;;5078070;28;20568;-60
2022/12/23 00:10:46;;;;;;;51.47;25.00;;;;;;;;;;5077675;28;20690;-61
2022/12/23 00:16:10;;;;;;;69.30;29.80;;;;;;;;;;5077895;28;20187;-60
2022/12/23 00:18:37;;;;;;;55.53;29.93;;;;;;;;;;5077585;28;20195;-61
2022/12/23 00:21:07;;;;;;;59.17;27.67;;;;;;;;;;5077527;28;20231;-60
2022/12/23 00:23:37;;;;;;;55.20;26.03;;;;;;;;;;5077746;28;20512;-60
2022/12/23 00:26:05;;;;;;;50.97;25.80;;;;;;;;;;5077606;28;20203;-61
2022/12/23 00:28:32;;;;;;;52.10;27.03;;;;;;;;;;5077494;28;20272;-60
2022/12/23 00:31:02;;;;;;;57.43;27.47;;;;;;;;;;5077271;28;20211;-62
2022/12/23 00:33:31;;;;;;;52.57;26.87;;;;;;;;;;5077315;28;20207;-61
2022/12/23 00:35:59;;;;;;;54.17;25.40;;;;;;;;;;5077138;28;20208;-60
2022/12/23 00:44:08;;;;;;;56.83;25.53;;;;;;;;;;5067109;28;20199;-60
2022/12/23 00:46:35;;;;;;;52.47;25.73;;;;;;;;;;5077288;28;20203;-61
2022/12/23 00:51:48;;;;;;;54.93;26.67;;;;;;;;;;5077237;28;20245;-61
2022/12/23 00:54:16;;;;;;;79.67;40.33;;;;;;;;;;5076923;28;20199;-60
2022/12/23 00:56:44;;;;;;;59.83;28.57;;;;;;;;;;5076687;28;20207;-60
2022/12/23 00:59:11;;;;;;;54.83;27.40;;;;;;;;;;5076985;28;20230;-60
2022/12/23 01:07:10;;;;;;;59.40;26.93;;;;;;;;;;5076675;28;20339;-61
2022/12/23 01:09:37;;;;;;;57.33;29.10;;;;;;;;;;5076534;28;20215;-60
2022/12/23 01:12:04;;;;;;;57.23;27.30;;;;;;;;;;5076721;28;20242;-61
2022/12/23 01:14:32;;;;;;;76.20;34.53;;;;;;;;;;5076799;28;20195;-60
2022/12/23 01:16:59;;;;;;;65.03;29.80;;;;;;;;;;5076209;28;20199;-61
2022/12/23 01:19:27;;;;;;;70.40;31.90;;;;;;;;;;5075336;28;20296;-62
2022/12/23 01:21:54;;;;;;;60.00;28.87;;;;;;;;;;5076521;28;20334;-61
2022/12/23 01:24:21;;;;;;;66.87;30.40;;;;;;;;;;5076687;28;20203;-60
2022/12/23 01:26:48;;;;;;;63.30;31.33;;;;;;;;;;5076526;28;20222;-61
2022/12/23 01:29:15;;;;;;;61.47;29.83;;;;;;;;;;5076378;28;20195;-61
2022/12/23 01:31:42;;;;;;;62.67;29.90;;;;;;;;;;5076155;28;20203;-61
2022/12/23 01:34:10;;;;;;;71.97;33.40;;;;;;;;;;5076034;28;20552;-60
2022/12/23 01:36:37;;;;;;;102.67;51.00;;;;;;;;;;5076357;28;20199;-61
2022/12/23 01:39:04;;;;;;;66.87;32.40;;;;;;;;;;5076183;28;20288;-61
2022/12/23 01:44:56;;;;;;;67.40;30.37;;;;;;;;;;5075997;28;20659;-60
2022/12/23 01:47:28;;;;;;;63.40;30.87;;;;;;;;;;5090055;28;20202;-60
2022/12/23 01:50:03;;;;;;;61.30;29.30;;;;;;;;;;5095591;28;20202;-61
2022/12/23 01:52:35;;;;;;;58.17;30.13;;;;;;;;;;5096386;28;20183;-61
2022/12/23 01:55:02;;;;;;;60.73;29.43;;;;;;;;;;5095139;28;20198;-61
2022/12/23 01:57:29;;;;;;;87.47;40.03;;;;;;;;;;5095269;28;20221;-61
2022/12/23 02:05:30;;;;;;;58.53;31.73;;;;;;;;;;5095161;28;20237;-60
2022/12/23 02:11:05;;;;;;;65.20;30.27;;;;;;;;;;5095644;28;20678;-61
2022/12/23 02:13:35;;;;;;;64.73;30.57;;;;;;;;;;5095661;28;20248;-60
2022/12/23 02:16:15;;;;;;;61.43;28.50;;;;;;;;;;5095646;28;20195;-60
2022/12/23 02:19:09;;;;;;;56.57;28.20;;;;;;;;;;5094945;28;20222;-61
2022/12/23 02:21:36;;;;;;;57.67;28.97;;;;;;;;;;5095416;28;20546;-61
2022/12/23 02:24:21;;;;;;;58.57;28.50;;;;;;;;;;5095373;28;20285;-61
2022/12/23 02:26:54;;;;;;;69.63;33.43;;;;;;;;;;5095981;28;20265;-61
2022/12/23 02:29:27;;;;;;;59.43;28.10;;;;;;;;;;5095207;28;20298;-60
2022/12/23 02:32:06;;;;;;;58.27;29.13;;;;;;;;;;5095307;28;20570;-62
2022/12/23 02:34:54;;;;;;;68.30;28.47;;;;;;;;;;5095780;28;20569;-60
2022/12/23 02:37:24;;;;;;;60.67;33.17;;;;;;;;;;5094574;28;20202;-61
2022/12/23 02:39:56;;;;;;;60.17;28.73;;;;;;;;;;5095216;28;20222;-60
2022/12/23 02:42:34;;;;;;;57.60;28.10;;;;;;;;;;5095231;28;20264;-60
2022/12/23 02:45:15;;;;;;;56.33;28.17;;;;;;;;;;5094152;28;20601;-61
2022/12/23 02:48:29;;;;;;;59.03;27.00;;;;;;;;;;5094993;28;20791;-60
2022/12/23 02:50:58;;;;;;;54.83;27.67;;;;;;;;;;5052661;28;20203;-61
2022/12/23 02:53:32;;;;;;;58.83;30.30;;;;;;;;;;5052763;28;20196;-60
2022/12/23 02:56:01;;;;;;;55.10;30.00;;;;;;;;;;5036381;28;20207;-61
2022/12/23 02:58:33;;;;;;;61.33;29.13;;;;;;;;;;5036427;28;20204;-60
2022/12/23 03:01:02;;;;;;;60.70;30.13;;;;;;;;;;5052658;28;20232;-60
2022/12/23 03:03:30;;;;;;;73.07;37.20;;;;;;;;;;5052682;28;20222;-61
2022/12/23 03:05:57;;;;;;;73.60;33.93;;;;;;;;;;5036157;28;20570;-61
2022/12/23 03:08:29;;;;;;;60.43;31.17;;;;;;;;;;5052564;28;20215;-61
2022/12/23 03:11:07;;;;;;;62.97;31.50;;;;;;;;;;5036182;28;20555;-60
2022/12/23 03:13:34;;;;;;;65.37;31.40;;;;;;;;;;5052611;28;20597;-63
2022/12/23 03:16:23;;;;;;;60.03;30.90;;;;;;;;;;5052420;28;20262;-60
2022/12/23 03:18:50;;;;;;;69.67;31.07;;;;;;;;;;5036184;28;20199;-60
2022/12/23 03:21:26;;;;;;;62.47;30.90;;;;;;;;;;5052028;28;20292;-61
2022/12/23 03:24:12;;;;;;;65.50;31.63;;;;;;;;;;5052433;28;20284;-60
2022/12/23 03:26:48;;;;;;;75.93;34.10;;;;;;;;;;5053702;28;20196;-61
2022/12/23 03:29:44;;;;;;;67.97;33.10;;;;;;;;;;5093728;28;20194;-61
2022/12/23 03:32:12;;;;;;;72.87;33.63;;;;;;;;;;5087669;28;20255;-60
2022/12/23 03:34:43;;;;;;;67.17;33.23;;;;;;;;;;5093353;28;20259;-62
2022/12/23 03:37:11;;;;;;;67.43;33.40;;;;;;;;;;5093306;28;20260;-60
2022/12/23 03:39:52;;;;;;;83.77;39.30;;;;;;;;;;5093472;28;20230;-60
2022/12/23 03:42:27;;;;;;;104.47;52.50;;;;;;;;;;5092784;28;20504;-61
2022/12/23 03:44:57;;;;;;;71.97;35.63;;;;;;;;;;5094171;28;20191;-60
2022/12/23 03:47:49;;;;;;;81.20;34.70;;;;;;;;;;5093577;28;20202;-61
2022/12/23 03:50:18;;;;;;;74.40;33.40;;;;;;;;;;5093307;28;20203;-61
2022/12/23 03:52:58;;;;;;;70.60;34.97;;;;;;;;;;5093097;28;20619;-60
2022/12/23 03:55:31;;;;;;;61.93;33.10;;;;;;;;;;5093228;28;20198;-60
2022/12/23 03:58:19;;;;;;;82.57;39.20;;;;;;;;;;5093022;28;20195;-60
2022/12/23 04:00:51;;;;;;;82.70;41.30;;;;;;;;;;5093213;28;20231;-62
2022/12/23 04:03:23;;;;;;;70.33;34.90;;;;;;;;;;5093041;28;20198;-61
2022/12/23 04:05:54;;;;;;;79.97;37.00;;;;;;;;;;5093883;28;20584;-61
2022/12/23 04:08:21;;;;;;;133.97;62.87;;;;;;;;;;5076331;28;20334;-60
2022/12/23 04:10:48;;;;;;;172.93;76.70;;;;;;;;;;5093794;28;20218;-61
2022/12/23 04:13:15;;;;;;;140.80;62.33;;;;;;;;;;5094113;28;20202;-61
2022/12/23 04:15:43;;;;;;;117.47;52.70;;;;;;;;;;5093922;28;20211;-61
2022/12/23 04:18:10;;;;;;;98.93;45.50;;;;;;;;;;5093869;28;20206;-61
2022/12/23 04:20:37;;;;;;;138.27;64.57;;;;;;;;;;5093409;28;20570;-60
2022/12/23 04:23:04;;;;;;;122.57;56.87;;;;;;;;;;5093655;28;20554;-62
2022/12/23 04:25:31;;;;;;;109.70;50.77;;;;;;;;;;5094004;28;20252;-61
2022/12/23 04:27:58;;;;;;;113.20;55.50;;;;;;;;;;5093815;28;20218;-61
2022/12/23 04:30:26;;;;;;;98.83;48.23;;;;;;;;;;5092755;28;20215;-61
2022/12/23 04:33:00;;;;;;;86.40;41.67;;;;;;;;;;5083393;28;20282;-61
2022/12/23 04:35:28;;;;;;;141.93;66.70;;;;;;;;;;5083546;28;20214;-61
2022/12/23 04:37:55;;;;;;;113.63;50.10;;;;;;;;;;5083719;28;20211;-62
2022/12/23 04:40:22;;;;;;;91.17;41.03;;;;;;;;;;5078778;28;20234;-61
2022/12/23 04:42:49;;;;;;;91.03;40.00;;;;;;;;;;5082749;28;20207;-61
2022/12/23 04:45:16;;;;;;;95.40;42.03;;;;;;;;;;5082061;28;20200;-61
2022/12/23 04:47:43;;;;;;;122.07;50.93;;;;;;;;;;5084982;28;20199;-60
2022/12/23 04:50:15;;;;;;;99.00;44.40;;;;;;;;;;5090057;28;20207;-61
2022/12/23 04:52:42;;;;;;;93.40;40.33;;;;;;;;;;5084709;28;20207;-61
2022/12/23 04:55:10;;;;;;;117.20;43.20;;;;;;;;;;5090768;28;20198;-62
2022/12/23 04:57:37;;;;;;;107.57;43.63;;;;;;;;;;5079880;28;20191;-61
2022/12/23 05:00:05;;;;;;;107.63;42.03;;;;;;;;;;5086167;28;20234;-62
2022/12/23 05:02:32;;;;;;;121.10;44.23;;;;;;;;;;5082665;28;20285;-61
2022/12/23 05:04:59;;;;;;;122.43;52.40;;;;;;;;;;5092664;28;20211;-62
2022/12/23 05:07:26;;;;;;;96.20;40.57;;;;;;;;;;5076659;28;20264;-61
2022/12/23 05:09:53;;;;;;;110.90;42.27;;;;;;;;;;5089288;28;20670;-60
2022/12/23 05:12:20;;;;;;;106.90;40.57;;;;;;;;;;5095704;28;20211;-61
2022/12/23 05:14:48;;;;;;;108.83;41.10;;;;;;;;;;5078115;28;20238;-61
2022/12/23 05:17:14;;;;;;;109.43;39.37;;;;;;;;;;5079566;28;20242;-61
2022/12/23 05:19:42;;;;;;;112.70;41.03;;;;;;;;;;5094039;28;20219;-61
2022/12/23 05:22:09;;;;;;;111.33;40.57;;;;;;;;;;5095576;28;20924;-61
2022/12/23 05:24:36;;;;;;;105.50;40.30;;;;;;;;;;5095590;28;20725;-63
2022/12/23 05:27:03;;;;;;;112.47;41.70;;;;;;;;;;5095475;28;20318;-60
2022/12/23 05:29:30;;;;;;;107.40;40.43;;;;;;;;;;5095294;28;20227;-62
2022/12/23 05:31:57;;;;;;;149.23;60.17;;;;;;;;;;5095545;28;20663;-61
2022/12/23 05:34:25;;;;;;;114.50;41.83;;;;;;;;;;5095974;28;20238;-61
2022/12/23 05:36:51;;;;;;;105.67;40.87;;;;;;;;;;5095478;28;20287;-61
2022/12/23 05:39:19;;;;;;;109.33;40.10;;;;;;;;;;5095900;28;20283;-62
2022/12/23 05:41:46;;;;;;;107.87;40.27;;;;;;;;;;5095467;28;20238;-65
2022/12/23 05:44:13;;;;;;;120.23;43.07;;;;;;;;;;5094953;28;20226;-61
2022/12/23 05:46:40;;;;;;;119.50;39.40;;;;;;;;;;5095498;28;20256;-62
2022/12/23 05:49:08;;;;;;;116.23;42.03;;;;;;;;;;5095119;28;20234;-61
2022/12/23 05:51:34;;;;;;;106.80;40.57;;;;;;;;;;5094593;28;20234;-61
2022/12/23 05:54:02;;;;;;;112.73;40.40;;;;;;;;;;5094090;28;20222;-61
2022/12/23 05:56:29;;;;;;;113.87;41.17;;;;;;;;;;5093850;28;20893;-61
2022/12/23 05:58:56;;;;;;;123.93;48.47;;;;;;;;;;5094091;28;20223;-63
2022/12/23 06:01:23;;;;;;;124.23;43.50;;;;;;;;;;5094585;28;20238;-61
2022/12/23 06:03:50;;;;;;;129.60;42.17;;;;;;;;;;5093881;28;20230;-62
2022/12/23 06:06:18;;;;;;;124.27;41.47;;;;;;;;;;5094451;28;20226;-61
2022/12/23 06:08:45;;;;;;;128.30;41.27;;;;;;;;;;5094663;28;20227;-63
2022/12/23 06:11:12;;;;;;;126.13;40.33;;;;;;;;;;5094645;28;20227;-60
2022/12/23 06:13:39;;;;;;;129.43;41.97;;;;;;;;;;5094561;28;20230;-61
2022/12/23 06:16:06;;;;;;;128.13;40.27;;;;;;;;;;5094414;28;20234;-61
2022/12/23 06:18:34;;;;;;;123.80;41.53;;;;;;;;;;5094932;28;20238;-62
2022/12/23 06:21:01;;;;;;;120.13;41.53;;;;;;;;;;5093496;28;20582;-64
2022/12/23 06:23:28;;;;;;;139.43;45.63;;;;;;;;;;5094483;28;20234;-62
2022/12/23 06:25:59;;;;;;;128.77;42.00;;;;;;;;;;5094272;28;20222;-61
2022/12/23 06:28:28;;;;;;;130.43;40.23;;;;;;;;;;5094401;28;20219;-64
2022/12/23 06:30:56;;;;;;;133.73;43.03;;;;;;;;;;5094391;28;20283;-62
2022/12/23 06:33:23;;;;;;;133.70;40.73;;;;;;;;;;5092522;28;20222;-61
2022/12/23 06:35:50;;;;;;;120.50;39.40;;;;;;;;;;5093068;28;20593;-61
2022/12/23 06:38:18;;;;;;;120.07;38.97;;;;;;;;;;5094126;28;20234;-61
2022/12/23 06:40:45;;;;;;;126.23;41.27;;;;;;;;;;5094204;28;20295;-61
2022/12/23 06:43:12;;;;;;;124.90;41.67;;;;;;;;;;5093654;28;20233;-64
2022/12/23 06:45:40;;;;;;;130.90;42.57;;;;;;;;;;5092536;28;20683;-64
2022/12/23 06:48:07;;;;;;;156.53;47.87;;;;;;;;;;5093492;28;20651;-61
2022/12/23 06:50:34;;;;;;;147.40;51.80;;;;;;;;;;5093625;28;20222;-61
2022/12/23 06:53:01;;;;;;;150.93;45.03;;;;;;;;;;5092951;28;20226;-61
2022/12/23 06:55:29;;;;;;;138.57;44.77;;;;;;;;;;5093316;28;20264;-61
2022/12/23 06:57:56;;;;;;;155.93;44.90;;;;;;;;;;5092583;28;20234;-61
2022/12/23 07:00:23;;;;;;;152.70;43.07;;;;;;;;;;5093233;28;20207;-60
2022/12/23 07:02:52;;;;;;;143.00;44.33;;;;;;;;;;5092295;28;20238;-62
2022/12/23 07:05:20;;;;;;;144.03;44.63;;;;;;;;;;5091792;28;20218;-61
2022/12/23 07:07:47;;;;;;;143.37;46.20;;;;;;;;;;5090532;28;20482;-61
2022/12/23 07:10:14;;;;;;;166.33;46.43;;;;;;;;;;5088887;28;20226;-61
2022/12/23 07:12:42;;;;;;;148.80;46.07;;;;;;;;;;5093314;28;20234;-62
2022/12/23 07:15:16;;;;;;;153.00;47.87;;;;;;;;;;5092878;28;20278;-63
2022/12/23 07:17:43;;;;;;;157.10;52.50;;;;;;;;;;5093618;28;20227;-61
2022/12/23 07:20:12;;;;;;;146.17;42.37;;;;;;;;;;5092245;28;20214;-63
2022/12/23 07:22:39;;;;;;;159.70;48.03;;;;;;;;;;5092508;28;20242;-61
2022/12/23 07:25:07;;;;;;;161.03;46.33;;;;;;;;;;5092606;28;20265;-62
2022/12/23 07:27:34;;;;;;;153.43;43.03;;;;;;;;;;5092744;28;20226;-61
2022/12/23 07:30:02;;;;;;;152.23;42.53;;;;;;;;;;5091833;28;20244;-61
2022/12/23 07:32:29;;;;;;;145.57;42.00;;;;;;;;;;5093400;28;20678;-62
2022/12/23 07:34:56;;;;;;;158.23;45.03;;;;;;;;;;5092620;28;20218;-62
2022/12/23 07:37:24;;;;;;;149.10;42.47;;;;;;;;;;5093406;28;20215;-60
2022/12/23 07:39:50;;;;;;;150.43;43.97;;;;;;;;;;5088264;28;20545;-61
2022/12/23 07:42:18;;;;;;;146.67;43.37;;;;;;;;;;5091448;28;20599;-61
2022/12/23 07:45:06;;;;;;;155.47;52.37;;;;;;;;;;5089716;28;20232;-61
2022/12/23 07:47:34;;;;;;;149.07;41.87;;;;;;;;;;5091361;28;20214;-61
2022/12/23 07:50:01;;;;;;;141.40;44.67;;;;;;;;;;5090547;28;20284;-61
2022/12/23 07:52:28;;;;;;;158.07;42.17;;;;;;;;;;5090791;28;20206;-61
2022/12/23 07:54:55;;;;;;;148.83;42.17;;;;;;;;;;5089944;28;20210;-61
2022/12/23 07:57:23;;;;;;;146.00;40.50;;;;;;;;;;5089788;28;20218;-61
2022/12/23 07:59:50;;;;;;;145.27;41.17;;;;;;;;;;5090095;28;20284;-62
2022/12/23 08:02:17;;;;;;;138.00;40.17;;;;;;;;;;5088247;28;20235;-61
2022/12/23 08:04:44;;;;;;;130.87;40.13;;;;;;;;;;5090768;28;20218;-64
2022/12/23 08:07:12;;;;;;;133.73;40.67;;;;;;;;;;5092354;28;20210;-61
2022/12/23 08:09:39;;;;;;;142.50;40.77;;;;;;;;;;5092252;28;20219;-61
2022/12/23 08:12:07;;;;;;;129.43;40.43;;;;;;;;;;5091854;28;20540;-61
2022/12/23 08:14:34;;;;;;;132.00;39.87;;;;;;;;;;5090163;28;20276;-60
2022/12/23 08:17:01;;;;;;;132.13;40.67;;;;;;;;;;5092328;28;20214;-60
2022/12/23 08:19:28;;;;;;;177.57;55.30;;;;;;;;;;5092233;28;20679;-60
2022/12/23 08:21:56;;;;;;;189.67;59.10;;;;;;;;;;5092021;28;20234;-61
2022/12/23 08:24:23;;;;;;;143.73;41.83;;;;;;;;;;5092018;28;20215;-61
2022/12/23 08:26:50;;;;;;;158.80;51.17;;;;;;;;;;5091888;28;20244;-62
2022/12/23 08:29:17;;;;;;;157.13;53.87;;;;;;;;;;5096557;28;20252;-61
2022/12/23 08:31:44;;;;;;;155.60;43.83;;;;;;;;;;5096044;28;20222;-63
2022/12/23 08:34:13;;;;;;;155.63;41.83;;;;;;;;;;5096401;28;20719;-60
2022/12/23 08:36:40;;;;;;;216.77;68.33;;;;;;;;;;5096239;28;20675;-62
2022/12/23 08:39:09;;;;;;;154.43;52.53;;;;;;;;;;5096383;28;20547;-60
2022/12/23 08:41:39;;;;;;;197.00;78.27;;;;;;;;;;5096415;28;20690;-61
2022/12/23 08:44:06;;;;;;;182.40;72.23;;;;;;;;;;5097145;28;20207;-62
2022/12/23 08:46:34;;;;;;;238.80;89.03;;;;;;;;;;5096132;28;20199;-61
2022/12/23 08:49:02;;;;;;;206.60;80.57;;;;;;;;;;5092529;28;20577;-61
2022/12/23 08:51:29;;;;;;;233.23;88.20;;;;;;;;;;5091097;28;21333;-61
2022/12/23 08:53:58;;;;;;;204.67;69.87;;;;;;;;;;5094171;28;20310;-64
2022/12/23 08:56:33;;;;;;;218.17;72.67;;;;;;;;;;5094016;28;20311;-60
2022/12/23 08:59:00;;;;;;;225.33;63.40;;;;;;;;;;5095758;28;20193;-60
2022/12/23 09:01:29;;;;;;;170.53;49.17;;;;;;;;;;5095403;28;20226;-61
2022/12/23 09:03:57;;;;;;;185.03;47.37;;;;;;;;;;5093829;28;20259;-62
2022/12/23 09:06:27;;;;;;;182.23;52.70;;;;;;;;;;5094851;28;20195;-64
2022/12/23 09:08:57;;;;;;;166.40;47.03;;;;;;;;;;5095720;28;20193;-63
2022/12/23 09:11:26;;;;;;;162.77;45.03;;;;;;;;;;5092232;28;20233;-61
2022/12/23 09:13:53;;;;;;;162.27;43.10;;;;;;;;;;5094981;28;20199;-61
2022/12/23 09:16:21;;;;;;;160.60;45.63;;;;;;;;;;5095157;28;20255;-60
2022/12/23 09:18:48;;;;;;;155.03;48.70;;;;;;;;;;5095129;28;20198;-62
2022/12/23 09:21:18;;;;;;;166.83;46.50;;;;;;;;;;5095339;28;20234;-61
2022/12/23 09:23:45;;;;;;;177.47;48.93;;;;;;;;;;5094684;28;20281;-64
2022/12/23 09:26:23;;;;;;;152.13;44.10;;;;;;;;;;5093979;28;20199;-62
2022/12/23 09:28:51;;;;;;;164.97;49.47;;;;;;;;;;5093830;28;20220;-61
2022/12/23 09:31:19;;;;;;;192.93;62.30;;;;;;;;;;5096220;28;20631;-61
2022/12/23 09:33:48;;;;;;;192.60;72.47;;;;;;;;;;5095506;28;20206;-61
2022/12/23 09:36:16;;;;;;;175.17;56.20;;;;;;;;;;5096132;28;20202;-61
2022/12/23 09:38:43;;;;;;;203.73;76.47;;;;;;;;;;5095013;28;20205;-61
2022/12/23 09:41:38;;;;;;;210.50;78.60;;;;;;;;;;5095926;28;20644;-62
2022/12/23 09:44:33;;;;;;;193.30;64.50;;;;;;;;;;5096559;28;20198;-62
2022/12/23 09:47:04;;;;;;;188.70;70.63;;;;;;;;;;5095918;28;20187;-62
2022/12/23 09:49:32;;;;;;;204.33;68.00;;;;;;;;;;5095462;28;20244;-61
2022/12/23 09:52:02;;;;;;;162.13;56.10;;;;;;;;;;5095992;28;20249;-62
2022/12/23 09:54:35;;;;;;;168.20;51.03;;;;;;;;;;5094509;28;20205;-62
2022/12/23 09:57:23;;;;;;;153.97;46.37;;;;;;;;;;5094444;28;20600;-61
2022/12/23 10:00:02;;;;;;;146.30;44.60;;;;;;;;;;5095225;28;20215;-62
2022/12/23 10:02:52;;;;;;;157.33;43.53;;;;;;;;;;5095685;28;20207;-62
2022/12/23 10:05:41;;;;;;;146.10;44.40;;;;;;;;;;5094611;28;20274;-63
2022/12/23 10:08:33;;;;;;;149.03;42.97;;;;;;;;;;5094712;28;20221;-61
2022/12/23 10:11:05;;;;;;;141.23;39.93;;;;;;;;;;5087362;28;20639;-62
2022/12/23 10:13:38;;;;;;;153.20;41.43;;;;;;;;;;5094911;28;20199;-62
2022/12/23 10:16:14;;;;;;;175.90;45.97;;;;;;;;;;5094480;28;20277;-63
2022/12/23 10:19:09;;;;;;;194.70;60.97;;;;;;;;;;5095084;28;20179;-64
2022/12/23 10:21:39;;;;;;;155.23;44.97;;;;;;;;;;5095651;28;20238;-65
2022/12/23 10:24:23;;;;;;;153.67;43.50;;;;;;;;;;5094798;28;20198;-64
2022/12/23 10:26:50;;;;;;;145.63;41.50;;;;;;;;;;5094909;28;20612;-64
2022/12/23 10:29:23;;;;;;;149.77;46.63;;;;;;;;;;5094701;28;20574;-64
2022/12/23 10:32:00;;;;;;;136.20;40.30;;;;;;;;;;5094624;28;20183;-65
2022/12/23 10:34:46;;;;;;;115.70;36.20;;;;;;;;;;5094421;28;20527;-64
2022/12/23 10:37:33;;;;;;;129.23;34.37;;;;;;;;;;5094381;28;20252;-64
2022/12/23 10:40:10;;;;;;;120.83;37.07;;;;;;;;;;5087669;28;20206;-63
2022/12/23 10:42:56;;;;;;;119.37;35.10;;;;;;;;;;5094374;28;20206;-64
2022/12/23 10:45:45;;;;;;;146.37;38.40;;;;;;;;;;5094799;28;20607;-64
2022/12/23 10:48:24;;;;;;;130.03;39.83;;;;;;;;;;5093895;28;20252;-65
2022/12/23 10:51:02;;;;;;;132.23;41.13;;;;;;;;;;5093520;28;20528;-62
2022/12/23 10:53:51;;;;;;;144.90;44.23;;;;;;;;;;5094309;28;20198;-64
2022/12/23 10:56:19;;;;;;;140.10;38.13;;;;;;;;;;5093450;28;20191;-63
2022/12/23 10:58:51;;;;;;;135.00;37.67;;;;;;;;;;5093269;28;20534;-64
2022/12/23 11:01:19;;;;;;;133.40;37.03;;;;;;;;;;5094487;28;20519;-62
2022/12/23 11:04:16;;;;;;;150.53;39.07;;;;;;;;;;5092542;28;20191;-63
2022/12/23 11:06:47;;;;;;;159.07;47.03;;;;;;;;;;5088515;28;20704;-62
2022/12/23 11:09:20;;;;;;;149.93;37.97;;;;;;;;;;5093224;28;20187;-62
2022/12/23 11:11:56;;;;;;;149.93;39.03;;;;;;;;;;5093693;28;20256;-63
2022/12/23 11:14:33;;;;;;;141.30;37.57;;;;;;;;;;5092970;28;20182;-63
2022/12/23 11:17:00;;;;;;;166.53;64.43;;;;;;;;;;5094845;28;20194;-64
2022/12/23 11:19:27;;;;;;;157.87;49.17;;;;;;;;;;5094127;28;20198;-63
2022/12/23 11:21:59;;;;;;;176.60;47.53;;;;;;;;;;5092113;28;20533;-65
2022/12/23 11:24:31;;;;;;;168.53;49.33;;;;;;;;;;5093786;28;20784;-63
2022/12/23 11:27:05;;;;;;;155.27;39.17;;;;;;;;;;5093358;28;20626;-65
2022/12/23 11:29:38;;;;;;;159.53;41.07;;;;;;;;;;5093557;28;20240;-63
2022/12/23 11:32:18;;;;;;;176.80;44.23;;;;;;;;;;5093273;28;20191;-65
2022/12/23 11:34:46;;;;;;;166.60;45.73;;;;;;;;;;5091819;28;20650;-63
2022/12/23 11:37:35;;;;;;;162.10;39.83;;;;;;;;;;5091815;28;20195;-63
2022/12/23 11:40:05;;;;;;;168.20;46.03;;;;;;;;;;5092562;28;20183;-63
2022/12/23 11:42:33;;;;;;;238.90;52.77;;;;;;;;;;5092188;28;20659;-63
2022/12/23 11:45:00;;;;;;;144.87;39.70;;;;;;;;;;5076341;28;20207;-64
2022/12/23 11:47:37;;;;;;;251.53;98.27;;;;;;;;;;5093989;28;20205;-62
2022/12/23 11:50:26;;;;;;;169.90;60.77;;;;;;;;;;5093100;28;20187;-64
2022/12/23 11:52:59;;;;;;;157.30;41.60;;;;;;;;;;5093769;28;20252;-65
2022/12/23 11:55:31;;;;;;;174.87;42.50;;;;;;;;;;5092667;28;20209;-65
2022/12/23 11:58:00;;;;;;;177.40;49.60;;;;;;;;;;5093114;28;20194;-62
2022/12/23 12:00:52;;;;;;;181.03;44.50;;;;;;;;;;5092649;28;20290;-64
2022/12/23 12:03:26;;;;;;;176.20;42.30;;;;;;;;;;5091348;28;20222;-62
2022/12/23 12:05:57;;;;;;;183.00;45.07;;;;;;;;;;5097825;28;20183;-64
2022/12/23 12:08:31;;;;;;;151.13;42.30;;;;;;;;;;5097261;28;20526;-62
2022/12/23 12:11:04;;;;;;;158.77;47.83;;;;;;;;;;5086181;28;20219;-63
2022/12/23 12:13:36;;;;;;;180.17;52.07;;;;;;;;;;5087227;28;20233;-64
2022/12/23 12:16:15;;;;;;;173.93;49.23;;;;;;;;;;5095871;28;20223;-62
2022/12/23 12:18:45;;;;;;;130.77;43.87;;;;;;;;;;5095918;28;20318;-63
2022/12/23 12:21:22;;;;;;;147.97;46.70;;;;;;;;;;5096493;28;20326;-65
2022/12/23 12:23:52;;;;;;;135.50;43.73;;;;;;;;;;5095841;28;20238;-63
2022/12/23 12:26:40;;;;;;;125.23;41.60;;;;;;;;;;5075113;28;20258;-64
2022/12/23 12:29:28;;;;;;;119.90;40.50;;;;;;;;;;5091477;28;20271;-66
2022/12/23 12:31:57;;;;;;;106.63;38.80;;;;;;;;;;5094458;28;20710;-63
2022/12/23 12:34:57;;;;;;;110.40;41.80;;;;;;;;;;5090247;28;20219;-63
2022/12/23 12:37:42;;;;;;;102.43;39.47;;;;;;;;;;5103851;28;20226;-62
2022/12/23 12:40:33;;;;;;;93.87;39.40;;;;;;;;;;5095217;28;20279;-64
2022/12/23 12:43:18;;;;;;;104.73;38.33;;;;;;;;;;5093111;28;20637;-62
2022/12/23 12:46:05;;;;;;;102.23;41.13;;;;;;;;;;5078011;28;20219;-63
2022/12/23 12:48:44;;;;;;;143.83;61.47;;;;;;;;;;5090620;28;20566;-62
2022/12/23 12:51:37;;;;;;;121.47;45.87;;;;;;;;;;5094112;28;20227;-60
2022/12/23 12:54:13;;;;;;;99.90;40.07;;;;;;;;;;5094963;28;20291;-61
2022/12/23 12:56:43;;;;;;;98.47;39.07;;;;;;;;;;5095690;28;20230;-59
2022/12/23 12:59:19;;;;;;;97.70;41.00;;;;;;;;;;5093905;28;20219;-63
2022/12/23 13:02:17;;;;;;;88.23;38.83;;;;;;;;;;5094719;28;20222;-63
2022/12/23 13:05:05;;;;;;;87.23;37.87;;;;;;;;;;5095576;28;20250;-65
2022/12/23 13:07:51;;;;;;;81.73;35.57;;;;;;;;;;5095607;28;20582;-63
2022/12/23 13:10:42;;;;;;;136.63;57.73;;;;;;;;;;5095413;28;20329;-62
2022/12/23 13:13:43;;;;;;;87.30;37.13;;;;;;;;;;5065881;28;20226;-62
2022/12/23 13:16:16;;;;;;;82.10;35.47;;;;;;;;;;5095692;28;20219;-62
2022/12/23 13:18:56;;;;;;;99.37;49.97;;;;;;;;;;5094375;28;20234;-61
2022/12/23 13:21:23;;;;;;;82.67;38.10;;;;;;;;;;5094354;28;20230;-64
2022/12/23 13:24:15;;;;;;;81.67;36.90;;;;;;;;;;5093790;28;20262;-65
2022/12/23 13:26:47;;;;;;;74.27;35.17;;;;;;;;;;5095397;28;20670;-61
2022/12/23 13:29:36;;;;;;;72.10;33.93;;;;;;;;;;5095343;28;20675;-63
2022/12/23 13:32:26;;;;;;;69.17;32.47;;;;;;;;;;5095575;28;20231;-62
2022/12/23 13:35:02;;;;;;;61.70;32.03;;;;;;;;;;5091298;28;20275;-64
2022/12/23 13:37:44;;;;;;;69.53;33.10;;;;;;;;;;5095036;28;20242;-62
2022/12/23 13:40:26;;;;;;;70.53;35.07;;;;;;;;;;5094856;28;20225;-62
2022/12/23 13:43:01;;;;;;;76.20;33.87;;;;;;;;;;5094395;28;20226;-62
2022/12/23 13:45:32;;;;;;;117.47;47.00;;;;;;;;;;5116995;27;20230;-66
2022/12/23 13:48:02;;;;;;;70.80;38.40;;;;;;;;;;5094546;28;20659;-65
2022/12/23 13:50:44;;;;;;;70.50;34.33;;;;;;;;;;5093819;28;20223;-65
2022/12/23 13:53:22;;;;;;;69.57;32.80;;;;;;;;;;5092334;28;20230;-59
2022/12/23 13:56:10;;;;;;;72.40;33.47;;;;;;;;;;5091204;28;20271;-60
2022/12/23 13:58:38;;;;;;;64.83;30.90;;;;;;;;;;5092524;28;20237;-65
2022/12/23 14:01:08;;;;;;;66.67;32.50;;;;;;;;;;5093366;28;20226;-64
2022/12/23 14:03:38;;;;;;;60.83;30.50;;;;;;;;;;5092986;28;20234;-62
2022/12/23 14:06:20;;;;;;;60.83;30.90;;;;;;;;;;5091880;28;20299;-63
2022/12/23 14:08:47;;;;;;;76.20;36.57;;;;;;;;;;5091838;28;20210;-60
2022/12/23 14:11:22;;;;;;;67.70;32.43;;;;;;;;;;5094309;28;20218;-62
2022/12/23 14:13:49;;;;;;;63.50;31.80;;;;;;;;;;5095226;28;20253;-63
2022/12/23 14:16:20;;;;;;;66.03;33.07;;;;;;;;;;5095027;28;20555;-63
2022/12/23 14:19:00;;;;;;;59.43;31.43;;;;;;;;;;5094347;28;20275;-61
2022/12/23 14:22:06;;;;;;;70.53;32.83;;;;;;;;;;5094654;28;20249;-61
2022/12/23 14:25:07;;;;;;;62.57;30.07;;;;;;;;;;5092406;28;20284;-66
2022/12/23 14:27:55;;;;;;;54.93;28.50;;;;;;;;;;5093463;28;20223;-62
2022/12/23 14:30:34;;;;;;;56.93;30.17;;;;;;;;;;5094692;28;20284;-62
2022/12/23 14:33:12;;;;;;;60.07;30.83;;;;;;;;;;5094474;28;20347;-62
2022/12/23 14:35:39;;;;;;;57.37;30.50;;;;;;;;;;5093305;28;20225;-64
2022/12/23 14:38:15;;;;;;;66.83;33.37;;;;;;;;;;5094400;28;20260;-62
2022/12/23 14:40:41;;;;;;;74.20;34.33;;;;;;;;;;5093593;28;20210;-61
2022/12/23 14:43:21;;;;;;;63.63;31.30;;;;;;;;;;5094584;28;20751;-60
2022/12/23 14:45:53;;;;;;;54.47;29.53;;;;;;;;;;5094117;28;20222;-61
2022/12/23 14:48:32;;;;;;;90.93;54.27;;;;;;;;;;5094172;28;20219;-62
2022/12/23 14:51:12;;;;;;;66.97;35.13;;;;;;;;;;5089529;28;20233;-61
2022/12/23 14:53:55;;;;;;;60.17;31.83;;;;;;;;;;5094213;28;20308;-62
2022/12/23 14:56:38;;;;;;;66.90;32.67;;;;;;;;;;5093350;28;20226;-60
2022/12/23 14:59:11;;;;;;;58.37;31.37;;;;;;;;;;5093817;28;20223;-64
2022/12/23 15:01:40;;;;;;;225.43;126.70;;;;;;;;;;5092874;28;20223;-62
2022/12/23 15:04:22;;;;;;;107.77;73.17;;;;;;;;;;5093471;28;20234;-63
2022/12/23 15:06:53;;;;;;;80.67;46.13;;;;;;;;;;5093087;28;20677;-64
2022/12/23 15:09:35;;;;;;;77.97;47.57;;;;;;;;;;5092913;28;20304;-64